Time;durP1;ratioP1;P1;durP2;ratioP2;P2;SDS_P1;SDS_P2;PMS_P1;PMS_P2;Temp;Humidity;BMP_temperature;BMP_pressure;BME280_temperature;BME280_humidity;BME280_pressure;Samples;Min_cycle;Max_cycle;Signal;HPM_P1;HPM_P2
2022/08/27 00:02:05;;;;;;;67.60;9.70;;;;;;;-143.84;66.36;45022.41;5132362;27;20447;-73
2022/08/27 00:04:33;;;;;;;76.07;10.60;;;;;;;-143.84;66.18;45030.03;5132219;27;20483;-73
2022/08/27 00:07:01;;;;;;;80.33;10.37;;;;;;;-143.84;66.22;45007.19;5132441;27;20434;-73
2022/08/27 00:09:29;;;;;;;74.50;9.70;;;;;;;-143.84;66.14;45003.38;5132057;27;20495;-73
2022/08/27 00:11:58;;;;;;;89.03;9.80;;;;;;;-143.84;66.15;45016.69;5131847;27;20868;-73
2022/08/27 00:14:27;;;;;;;91.77;10.60;;;;;;;-143.84;66.47;45024.31;5131743;27;20429;-73
2022/08/27 00:16:55;;;;;;;70.43;11.23;;;;;;;-143.84;66.42;44999.56;5131475;27;20466;-73
2022/08/27 00:19:22;;;;;;;80.70;11.20;;;;;;;-143.84;66.20;45022.41;5131805;27;20433;-73
2022/08/27 00:21:49;;;;;;;90.47;10.07;;;;;;;-143.84;66.04;45010.97;5131719;27;20438;-73
2022/08/27 00:24:17;;;;;;;74.00;10.63;;;;;;;-143.84;65.89;45014.78;5131971;27;20859;-73
2022/08/27 00:26:44;;;;;;;67.93;10.57;;;;;;;-143.84;65.70;45031.94;5132183;27;20467;-73
2022/08/27 00:29:13;;;;;;;93.07;12.13;;;;;;;-143.84;65.64;45039.53;5131649;27;20880;-73
2022/08/27 00:31:40;;;;;;;97.67;9.70;;;;;;;-143.84;65.99;45028.13;5132117;27;20442;-73
2022/08/27 00:34:08;;;;;;;75.73;10.33;;;;;;;-143.84;65.85;45020.50;5132150;27;20465;-74
2022/08/27 00:36:35;;;;;;;84.60;10.57;;;;;;;-143.84;65.60;45018.59;5132149;27;20477;-74
2022/08/27 00:39:03;;;;;;;53.73;9.63;;;;;;;-143.84;65.90;45033.84;5132163;27;20506;-74
2022/08/27 00:41:30;;;;;;;99.80;10.53;;;;;;;-143.84;65.82;45010.97;5132084;27;20446;-74
2022/08/27 00:44:00;;;;;;;80.23;12.97;;;;;;;-143.84;65.48;45026.22;5132229;27;20426;-74
2022/08/27 00:46:34;;;;;;;105.20;11.17;;;;;;;-143.84;65.84;45020.50;5131942;27;20962;-74
2022/08/27 00:49:05;;;;;;;66.70;9.30;;;;;;;-143.84;65.95;45003.38;5131938;27;20433;-73
2022/08/27 00:51:33;;;;;;;80.47;11.00;;;;;;;-143.84;65.82;45018.59;5131852;27;20514;-73
2022/08/27 00:54:01;;;;;;;97.93;10.67;;;;;;;-143.84;66.95;45010.97;5131543;27;20445;-73
2022/08/27 00:56:33;;;;;;;68.77;11.17;;;;;;;-143.84;65.26;45030.03;5131596;27;20449;-73
2022/08/27 00:59:03;;;;;;;65.63;10.63;;;;;;;-143.84;64.93;45012.88;5131682;27;20464;-73
2022/08/27 01:02:17;;;;;;;117.93;11.23;;;;;;;-143.84;64.62;45007.19;5130913;27;20963;-73
2022/08/27 01:04:22;;;;;;;106.00;10.50;;;;;;;-143.84;64.70;45014.78;5130475;27;20449;-73
2022/08/27 01:06:49;;;;;;;64.10;11.63;;;;;;;-143.84;64.44;45007.19;5131464;27;20430;-73
2022/08/27 01:09:17;;;;;;;73.07;9.83;;;;;;;-143.84;64.48;45033.84;5131297;27;20450;-73
2022/08/27 01:11:47;;;;;;;66.50;9.70;;;;;;;-143.84;64.49;45037.66;5129840;27;20480;-73
2022/08/27 01:14:15;;;;;;;83.70;11.13;;;;;;;-143.84;64.39;45054.78;5131454;27;20789;-73
2022/08/27 01:16:49;;;;;;;71.77;11.80;;;;;;;-143.84;64.05;45035.75;5130810;27;20503;-73
2022/08/27 01:19:31;;;;;;;84.23;10.30;;;;;;;-143.84;64.38;45014.78;5130865;27;20864;-73
2022/08/27 01:22:03;;;;;;;61.43;10.00;;;;;;;-143.84;63.63;45014.78;5130751;27;20525;-73
2022/08/27 01:24:36;;;;;;;108.77;11.87;;;;;;;-143.84;63.57;45010.97;5131299;27;20438;-73
2022/08/27 01:27:07;;;;;;;89.53;10.27;;;;;;;-143.84;63.52;45030.03;5131148;28;20446;-73
2022/08/27 01:29:35;;;;;;;63.40;10.60;;;;;;;-143.84;63.36;45030.03;5130971;28;20861;-73
2022/08/27 01:32:08;;;;;;;92.37;11.97;;;;;;;-143.84;63.43;45024.31;5131248;28;20434;-73
2022/08/27 01:34:37;;;;;;;81.43;10.30;;;;;;;-143.84;63.60;45047.16;5130926;28;20451;-73
2022/08/27 01:37:05;;;;;;;95.30;11.37;;;;;;;-143.84;63.50;45035.75;5131229;28;21296;-73
2022/08/27 01:39:34;;;;;;;62.63;10.13;;;;;;;-143.84;63.44;45037.66;5130798;28;20546;-73
2022/08/27 01:42:07;;;;;;;79.87;10.80;;;;;;;-143.84;63.31;45035.75;5130818;28;20507;-73
2022/08/27 01:44:46;;;;;;;79.80;10.70;;;;;;;-143.84;63.24;45012.88;5130813;28;20471;-73
2022/08/27 01:47:13;;;;;;;64.37;10.17;;;;;;;-143.84;63.31;45043.34;5131269;28;20518;-73
2022/08/27 01:49:40;;;;;;;81.87;12.00;;;;;;;-143.84;63.12;45028.13;5130840;28;20441;-73
2022/08/27 01:52:08;;;;;;;58.83;10.77;;;;;;;-143.84;62.73;45007.19;5130880;28;21203;-73
2022/08/27 01:54:36;;;;;;;59.10;9.70;;;;;;;-143.84;62.79;45018.59;5131099;28;20450;-73
2022/08/27 01:57:04;;;;;;;58.13;10.03;;;;;;;-143.84;62.80;45014.78;5130663;28;20809;-73
2022/08/27 01:59:32;;;;;;;73.80;10.73;;;;;;;-143.84;62.54;45024.31;5131352;28;20779;-73
2022/08/27 02:02:01;;;;;;;84.47;11.30;;;;;;;-143.84;62.38;45026.22;5131049;28;20434;-73
2022/08/27 02:04:28;;;;;;;62.37;9.80;;;;;;;-143.84;62.42;45033.84;5130770;28;20941;-73
2022/08/27 02:06:56;;;;;;;70.80;9.73;;;;;;;-143.84;62.32;45041.44;5130834;28;20498;-73
2022/08/27 02:09:24;;;;;;;75.53;10.77;;;;;;;-143.84;62.14;45020.50;5130693;28;20483;-73
2022/08/27 02:11:53;;;;;;;90.73;9.97;;;;;;;-143.84;62.19;45033.84;5130418;28;20478;-73
2022/08/27 02:14:20;;;;;;;83.73;10.30;;;;;;;-143.84;62.40;45014.78;5131009;28;20435;-73
2022/08/27 02:16:47;;;;;;;62.87;9.83;;;;;;;-143.84;62.69;45030.03;5130410;28;20521;-73
2022/08/27 02:19:15;;;;;;;92.40;10.00;;;;;;;-143.84;62.56;45041.44;5130765;28;20985;-73
2022/08/27 02:21:42;;;;;;;72.23;9.73;;;;;;;-143.84;62.63;45020.50;5131544;27;20947;-73
2022/08/27 02:24:10;;;;;;;83.10;10.30;;;;;;;-143.84;62.71;45050.97;5134356;27;20426;-73
2022/08/27 02:26:38;;;;;;;72.17;9.90;;;;;;;-143.84;62.69;45047.16;5134811;27;20832;-73
2022/08/27 02:29:07;;;;;;;75.80;11.03;;;;;;;-143.84;62.67;45031.94;5134269;27;21018;-73
2022/08/27 02:31:34;;;;;;;87.90;11.27;;;;;;;-143.84;62.71;45024.31;5134609;27;20797;-73
2022/08/27 02:34:01;;;;;;;65.63;10.13;;;;;;;-143.84;62.66;45071.91;5134126;27;20498;-73
2022/08/27 02:36:28;;;;;;;126.13;13.47;;;;;;;-143.84;62.81;45024.31;5134330;27;20411;-73
2022/08/27 02:38:57;;;;;;;80.13;10.10;;;;;;;-143.84;62.33;45028.13;5134277;27;20534;-73
2022/08/27 02:41:25;;;;;;;83.13;10.23;;;;;;;-143.84;62.54;45026.22;5134355;27;20434;-73
2022/08/27 02:43:52;;;;;;;78.73;10.57;;;;;;;-143.84;62.76;45030.03;5133791;27;20434;-73
2022/08/27 02:46:21;;;;;;;68.07;9.60;;;;;;;-143.84;62.68;45035.75;5134122;27;20460;-73
2022/08/27 02:48:48;;;;;;;75.77;10.37;;;;;;;-143.84;62.75;45047.16;5134196;27;20836;-73
2022/08/27 02:51:15;;;;;;;85.03;10.10;;;;;;;-143.84;62.70;45018.59;5134035;27;20517;-73
2022/08/27 02:53:42;;;;;;;88.13;11.33;;;;;;;-143.84;62.97;45030.03;5134166;27;20438;-73
2022/08/27 02:56:10;;;;;;;90.00;12.07;;;;;;;-143.84;62.83;45045.25;5133990;27;20931;-73
2022/08/27 02:58:37;;;;;;;86.07;9.77;;;;;;;-143.84;62.90;45043.34;5133298;27;20539;-73
2022/08/27 03:01:05;;;;;;;73.57;9.93;;;;;;;-143.84;62.89;45026.22;5134272;27;20446;-73
2022/08/27 03:03:34;;;;;;;63.80;10.10;;;;;;;-143.84;62.96;45033.84;5133840;27;20434;-73
2022/08/27 03:06:02;;;;;;;62.37;9.60;;;;;;;-143.84;62.94;45030.03;5134537;27;20943;-78
2022/08/27 03:08:29;;;;;;;83.57;11.50;;;;;;;-143.84;62.88;45026.22;5134890;27;20446;-78
2022/08/27 03:10:57;;;;;;;66.60;10.00;;;;;;;-143.84;62.66;45037.66;5135031;27;20481;-78
2022/08/27 03:13:26;;;;;;;75.23;10.50;;;;;;;-143.84;62.69;45050.97;5134050;27;20426;-78
2022/08/27 03:15:53;;;;;;;78.30;10.90;;;;;;;-143.84;62.69;45039.53;5134502;27;20513;-78
2022/08/27 03:18:20;;;;;;;111.07;11.30;;;;;;;-143.84;62.51;45030.03;5134306;27;20928;-78
2022/08/27 03:20:51;;;;;;;73.80;10.70;;;;;;;-143.84;62.56;45037.66;5134570;27;21097;-78
2022/08/27 03:23:21;;;;;;;86.87;9.40;;;;;;;-143.84;62.60;45031.94;5134708;27;20442;-78
2022/08/27 03:25:51;;;;;;;87.50;10.47;;;;;;;-143.84;62.46;45056.69;5134464;27;20474;-78
2022/08/27 03:28:19;;;;;;;77.93;11.50;;;;;;;-143.84;62.26;45031.94;5133657;27;20513;-78
2022/08/27 03:30:50;;;;;;;74.53;9.40;;;;;;;-143.84;62.43;45039.53;5134030;27;20434;-78
2022/08/27 03:33:19;;;;;;;59.30;11.03;;;;;;;-143.84;62.24;45035.75;5133218;27;20435;-78
2022/08/27 03:35:47;;;;;;;92.27;10.33;;;;;;;-143.84;62.29;45031.94;5134118;27;20438;-78
2022/08/27 03:38:16;;;;;;;77.47;11.03;;;;;;;-143.84;62.25;45022.41;5134268;27;20561;-78
2022/08/27 03:40:43;;;;;;;83.90;11.70;;;;;;;-143.84;61.96;45028.13;5133991;27;20442;-78
2022/08/27 03:43:12;;;;;;;85.23;10.37;;;;;;;-143.84;61.86;45022.41;5134098;27;20426;-78
2022/08/27 03:45:40;;;;;;;75.63;10.87;;;;;;;-143.84;61.90;45043.34;5133925;27;21208;-82
2022/08/27 03:48:07;;;;;;;80.63;9.63;;;;;;;-143.84;61.74;45043.34;5117447;27;21021;-80
2022/08/27 03:50:35;;;;;;;110.17;10.10;;;;;;;-143.84;61.62;45030.03;5113638;28;20478;-81
2022/08/27 03:53:02;;;;;;;78.43;9.43;;;;;;;-143.84;61.41;45030.03;5112947;28;20519;-76
2022/08/27 03:55:31;;;;;;;72.50;9.77;;;;;;;-143.84;61.44;45028.13;5113201;28;20442;-76
2022/08/27 03:57:58;;;;;;;92.87;10.10;;;;;;;-143.84;61.22;45031.94;5112422;28;20539;-77
2022/08/27 04:00:26;;;;;;;62.63;10.90;;;;;;;-143.84;60.85;45016.69;5113248;28;20496;-81
2022/08/27 04:02:54;;;;;;;68.80;9.77;;;;;;;-143.84;60.67;45003.38;5112439;28;20419;-76
2022/08/27 04:05:22;;;;;;;75.53;10.10;;;;;;;-143.84;60.15;45030.03;5111733;28;20474;-80
2022/08/27 04:07:49;;;;;;;94.63;10.10;;;;;;;-143.84;60.00;45024.31;5111722;28;20833;-80
2022/08/27 04:10:17;;;;;;;80.70;12.10;;;;;;;-143.84;59.87;45030.03;5112939;28;20468;-78
2022/08/27 04:12:46;;;;;;;72.97;9.67;;;;;;;-143.84;59.49;45024.31;5127257;27;21210;-86
2022/08/27 04:15:13;;;;;;;89.57;11.53;;;;;;;-143.84;59.48;45018.59;5130523;27;20410;-77
2022/08/27 04:17:41;;;;;;;70.33;9.93;;;;;;;-143.84;59.09;45007.19;5130077;27;20438;-78
2022/08/27 04:20:10;;;;;;;82.73;10.47;;;;;;;-143.84;58.31;44999.56;5114710;27;20422;-79
2022/08/27 04:22:38;;;;;;;83.53;10.53;;;;;;;-143.84;58.07;45018.59;5131669;27;20533;-78
2022/08/27 04:25:06;;;;;;;83.87;9.97;;;;;;;-143.84;57.28;44993.84;5133163;27;20521;-80
2022/08/27 04:27:33;;;;;;;71.17;9.57;;;;;;;-143.84;57.42;45020.50;5133113;27;20928;-79
2022/08/27 04:30:02;;;;;;;70.43;10.87;;;;;;;-143.84;57.25;45022.41;5133144;27;20947;-79
2022/08/27 04:32:30;;;;;;;67.87;10.43;;;;;;;-143.84;56.79;45014.78;5133040;27;20485;-78
2022/08/27 04:34:59;;;;;;;89.17;10.40;;;;;;;-143.84;56.54;45009.09;5133115;27;21286;-78
2022/08/27 04:37:29;;;;;;;77.33;11.23;;;;;;;-143.84;56.17;44991.94;5132989;27;20430;-78
2022/08/27 04:39:57;;;;;;;96.13;11.70;;;;;;;-143.84;55.06;44984.31;5132626;27;20466;-78
2022/08/27 04:42:24;;;;;;;91.30;10.30;;;;;;;-143.84;55.29;45005.28;5132394;27;20426;-78
2022/08/27 04:44:52;;;;;;;68.97;11.03;;;;;;;-143.84;55.03;45010.97;5133009;27;20434;-78
2022/08/27 04:47:21;;;;;;;73.13;11.37;;;;;;;-143.84;55.14;45010.97;5132599;27;20426;-78
2022/08/27 04:49:48;;;;;;;59.20;9.50;;;;;;;-143.84;54.81;44999.56;5132659;27;20438;-78
2022/08/27 04:52:16;;;;;;;97.57;12.03;;;;;;;-143.84;53.49;44984.31;5132388;27;20499;-78
2022/08/27 04:54:43;;;;;;;85.37;10.17;;;;;;;-143.84;52.91;45003.38;5132849;27;20816;-78
2022/08/27 04:57:10;;;;;;;113.20;11.47;;;;;;;-143.84;51.07;44997.66;5132431;27;20434;-78
2022/08/27 04:59:38;;;;;;;82.23;12.90;;;;;;;-143.84;50.77;45001.47;5132357;27;20469;-78
2022/08/27 05:02:09;;;;;;;76.87;8.57;;;;;;;-143.84;49.82;45016.69;5132818;27;20491;-78
2022/08/27 05:04:40;;;;;;;62.83;10.10;;;;;;;-143.84;49.20;44980.53;5132604;27;20434;-78
2022/08/27 05:07:09;;;;;;;90.43;10.33;;;;;;;-143.84;48.40;45001.47;5132636;27;20437;-78
2022/08/27 05:09:37;;;;;;;75.83;11.50;;;;;;;-143.84;46.84;44988.13;5132169;27;20430;-78
2022/08/27 05:12:04;;;;;;;87.40;10.77;;;;;;;-143.84;46.18;44991.94;5132161;27;20478;-78
2022/08/27 05:14:31;;;;;;;69.80;10.97;;;;;;;-143.84;45.27;44953.88;5132219;27;20438;-78
2022/08/27 05:16:59;;;;;;;69.33;10.03;;;;;;;-143.84;44.89;44995.75;5132280;27;20498;-78
2022/08/27 05:19:27;;;;;;;87.20;9.50;;;;;;;-143.84;44.48;45003.38;5131311;27;21074;-78
2022/08/27 05:21:55;;;;;;;61.07;9.60;;;;;;;-143.84;43.64;44965.28;5130987;27;20438;-78
2022/08/27 05:24:23;;;;;;;79.67;10.50;;;;;;;-143.84;44.16;44963.38;5131629;27;20475;-78
2022/08/27 05:26:51;;;;;;;92.33;9.87;;;;;;;-143.84;43.86;44938.63;5131792;28;20928;-78
2022/08/27 05:29:19;;;;;;;82.77;9.37;;;;;;;-143.84;43.21;44984.31;5132348;28;20919;-78
2022/08/27 05:31:47;;;;;;;77.27;9.20;;;;;;;-143.84;43.14;44991.94;5132300;28;20783;-78
2022/08/27 05:34:14;;;;;;;73.50;8.63;;;;;;;-143.84;43.65;44965.28;5132101;28;20438;-78
2022/08/27 05:36:41;;;;;;;62.77;9.67;;;;;;;-143.84;43.77;44976.72;5132054;28;21090;-78
2022/08/27 05:39:10;;;;;;;90.33;8.93;;;;;;;-143.84;42.85;44955.75;5132044;28;20489;-78
2022/08/27 05:41:38;;;;;;;82.20;11.53;;;;;;;-143.84;41.96;44951.97;5132260;28;20803;-78
2022/08/27 05:44:08;;;;;;;86.87;10.43;;;;;;;-143.84;42.24;44953.88;5131745;28;20434;-77
2022/08/27 05:46:36;;;;;;;74.80;10.90;;;;;;;-143.84;42.71;44940.53;5132093;28;20516;-77
2022/08/27 05:49:03;;;;;;;72.47;12.67;;;;;;;-143.84;41.98;44915.78;5132039;28;20448;-77
2022/08/27 05:51:32;;;;;;;56.13;11.50;;;;;;;-143.84;41.37;44955.75;5132064;28;20434;-77
2022/08/27 05:54:01;;;;;;;102.80;11.43;;;;;;;-143.84;39.89;44936.72;5131369;28;20438;-77
2022/08/27 05:56:32;;;;;;;68.37;9.97;;;;;;;-143.84;40.33;44931.00;5132071;27;20850;-79
2022/08/27 06:01:48;;;;;;;73.90;11.40;;;;;;;-143.84;40.86;44944.34;5134326;27;20425;-78
2022/08/27 06:04:16;;;;;;;84.13;10.30;;;;;;;-143.84;41.19;44944.34;5135546;27;20491;-78
2022/08/27 06:06:45;;;;;;;85.57;10.73;;;;;;;-143.84;41.18;44944.34;5135685;27;20430;-78
2022/08/27 06:09:14;;;;;;;92.47;12.03;;;;;;;-143.84;41.47;44938.63;5135791;27;20446;-73
2022/08/27 06:11:43;;;;;;;66.87;9.00;;;;;;;-143.84;40.59;44948.16;5132981;27;20546;-72
2022/08/27 06:14:11;;;;;;;74.37;10.13;;;;;;;-143.84;40.57;44946.25;5133439;27;20510;-72
2022/08/27 06:16:39;;;;;;;89.83;10.13;;;;;;;-143.84;40.63;44936.72;5133304;27;20950;-72
2022/08/27 06:19:07;;;;;;;90.50;12.13;;;;;;;-143.84;40.60;44955.75;5133000;27;20513;-72
2022/08/27 06:21:34;;;;;;;56.23;11.50;;;;;;;-143.84;40.86;44929.09;5132901;27;20472;-72
2022/08/27 06:24:01;;;;;;;97.30;10.37;;;;;;;-143.84;40.56;44946.25;5133237;27;20434;-72
2022/08/27 06:26:29;;;;;;;68.03;9.83;;;;;;;-143.84;40.55;44904.34;5133097;27;20434;-72
2022/08/27 06:29:03;;;;;;;92.37;10.63;;;;;;;-143.84;41.02;44921.50;5132923;27;20429;-72
2022/08/27 06:31:31;;;;;;;77.63;11.10;;;;;;;-143.84;41.08;44950.06;5133110;27;20557;-72
2022/08/27 06:34:00;;;;;;;66.40;12.90;;;;;;;-143.84;40.54;44931.00;5132946;27;20919;-72
2022/08/27 06:36:29;;;;;;;95.20;24.27;;;;;;;-143.84;40.71;44936.72;5132561;27;20434;-72
2022/08/27 06:38:57;;;;;;;129.20;29.63;;;;;;;-143.84;41.37;44942.44;5133060;27;20481;-72
2022/08/27 06:41:26;;;;;;;117.30;26.70;;;;;;;-143.84;41.26;44946.25;5132539;27;20809;-72
2022/08/27 06:43:55;;;;;;;72.80;15.80;;;;;;;-143.84;41.45;44942.44;5132469;27;20446;-72
2022/08/27 06:46:26;;;;;;;91.33;11.40;;;;;;;-143.84;41.85;44934.81;5132644;27;20510;-72
2022/08/27 06:48:54;;;;;;;106.43;10.13;;;;;;;-143.84;41.63;44938.63;5132777;27;20446;-73
2022/08/27 06:51:25;;;;;;;87.47;12.50;;;;;;;-143.84;42.02;44910.06;5132499;27;20430;-72
2022/08/27 06:53:52;;;;;;;93.40;11.60;;;;;;;-143.84;41.12;44950.06;5132288;27;20434;-73
2022/08/27 06:56:21;;;;;;;89.43;10.40;;;;;;;-143.84;41.16;44965.28;5132401;27;20446;-73
2022/08/27 06:58:48;;;;;;;83.87;10.43;;;;;;;-143.84;40.56;44931.00;5132373;27;20481;-73
2022/08/27 07:01:17;;;;;;;69.70;9.90;;;;;;;-143.84;40.85;44911.97;5132359;27;20474;-73
2022/08/27 07:03:47;;;;;;;81.73;10.27;;;;;;;-143.84;40.85;44953.88;5131906;27;20445;-73
2022/08/27 07:06:16;;;;;;;79.80;10.43;;;;;;;-143.84;39.32;44951.97;5132373;27;20955;-73
2022/08/27 07:08:45;;;;;;;69.37;9.90;;;;;;;-143.84;39.57;44940.53;5130724;27;20446;-73
2022/08/27 07:11:14;;;;;;;59.23;10.87;;;;;;;-143.84;39.62;44931.00;5131875;27;20477;-73
2022/08/27 07:13:42;;;;;;;48.60;10.17;;;;;;;-143.84;39.05;44927.19;5131842;27;20438;-72
2022/08/27 07:16:12;;;;;;;62.67;9.43;;;;;;;-143.84;38.72;44923.41;5131973;27;20442;-72
2022/08/27 07:18:40;;;;;;;64.23;12.30;;;;;;;-143.84;38.76;44919.59;5131915;27;20940;-73
2022/08/27 07:21:09;;;;;;;77.30;11.03;;;;;;;-143.84;38.78;44915.78;5132084;27;20939;-73
2022/08/27 07:23:39;;;;;;;75.10;10.50;;;;;;;-143.84;37.08;44904.34;5131866;27;20442;-73
2022/08/27 07:26:08;;;;;;;77.03;11.13;;;;;;;-143.84;36.69;44898.66;5131934;27;20517;-72
2022/08/27 07:28:36;;;;;;;76.13;9.00;;;;;;;-143.84;36.35;44864.38;5131767;27;20438;-72
2022/08/27 07:31:05;;;;;;;63.10;8.17;;;;;;;-143.84;35.74;44881.50;5131654;27;20494;-72
2022/08/27 07:33:32;;;;;;;71.73;8.27;;;;;;;-143.84;35.88;44858.66;5131499;27;20881;-75
2022/08/27 07:35:59;;;;;;;66.80;8.60;;;;;;;-143.84;34.05;44858.66;5131620;27;21085;-73
2022/08/27 07:38:28;;;;;;;58.17;9.40;;;;;;;-143.84;33.84;44851.03;5131684;27;20437;-73
2022/08/27 07:40:55;;;;;;;51.33;8.80;;;;;;;-143.84;34.43;44854.84;5131863;27;20469;-73
2022/08/27 07:46:06;;;;;;;82.13;11.67;;;;;;;-143.84;33.57;44851.03;5131623;27;20429;-72
2022/08/27 07:48:34;;;;;;;70.37;9.40;;;;;;;-143.84;33.46;44841.53;5131117;27;20434;-73
2022/08/27 07:51:04;;;;;;;68.77;10.53;;;;;;;-143.84;32.99;44824.38;5131335;27;20442;-72
2022/08/27 07:53:33;;;;;;;54.37;9.03;;;;;;;-143.84;33.19;44818.66;5131274;27;20939;-73
2022/08/27 07:56:04;;;;;;;83.43;9.33;;;;;;;-143.84;32.32;44803.44;5131380;27;20518;-73
2022/08/27 07:58:31;;;;;;;79.17;11.37;;;;;;;-143.84;32.89;44833.91;5131315;27;20437;-73
2022/08/27 08:00:59;;;;;;;61.87;10.10;;;;;;;-143.84;33.24;44832.00;5131044;27;20478;-73
2022/08/27 08:03:26;;;;;;;70.63;12.03;;;;;;;-143.84;33.34;44807.25;5131106;27;20418;-73
2022/08/27 08:05:54;;;;;;;74.67;10.30;;;;;;;-143.84;32.73;44820.56;5131469;27;20438;-73
2022/08/27 08:08:22;;;;;;;80.50;10.00;;;;;;;-143.84;33.44;44812.97;5130940;27;20442;-72
2022/08/27 08:10:51;;;;;;;83.57;9.63;;;;;;;-143.84;34.05;44780.59;5130650;27;20454;-72
2022/08/27 08:13:18;;;;;;;48.00;8.60;;;;;;;-143.84;33.76;44812.97;5131091;27;20862;-72
2022/08/27 08:15:47;;;;;;;81.83;10.90;;;;;;;-143.84;33.03;44801.53;5130949;27;20464;-72
2022/08/27 08:18:14;;;;;;;87.67;9.60;;;;;;;-143.84;31.25;44820.56;5130921;27;20450;-73
2022/08/27 08:20:41;;;;;;;52.90;10.00;;;;;;;-143.84;32.07;44814.88;5130755;27;20720;-72
2022/08/27 08:23:09;;;;;;;58.33;10.03;;;;;;;-143.84;33.00;44811.06;5131233;27;20481;-73
2022/08/27 08:25:36;;;;;;;70.97;10.17;;;;;;;-143.84;32.20;44812.97;5131138;27;20439;-72
2022/08/27 08:28:05;;;;;;;77.27;10.20;;;;;;;-143.84;33.27;44826.28;5130990;27;21192;-72
2022/08/27 08:30:32;;;;;;;62.93;9.23;;;;;;;-143.84;32.18;44811.06;5130608;27;21047;-72
2022/08/27 08:32:59;;;;;;;74.40;9.40;;;;;;;-143.84;32.14;44852.94;5130591;27;20434;-72
2022/08/27 08:35:27;;;;;;;63.97;8.80;;;;;;;-143.84;32.00;44841.53;5130409;27;20446;-73
2022/08/27 08:37:54;;;;;;;69.73;10.40;;;;;;;-143.84;32.20;44828.19;5130224;27;20446;-72
2022/08/27 08:40:31;;;;;;;37.10;7.57;;;;;;;-143.84;31.80;44854.84;5129871;27;20485;-73
2022/08/27 08:42:59;;;;;;;80.20;9.03;;;;;;;-143.84;31.51;44858.66;5129462;27;20441;-73
2022/08/27 08:45:33;;;;;;;59.43;8.63;;;;;;;-143.84;31.54;44833.91;5129240;27;20949;-73
2022/08/27 08:48:07;;;;;;;51.87;8.07;;;;;;;-143.84;31.78;44820.56;5130110;27;21051;-73
2022/08/27 08:50:39;;;;;;;75.40;9.50;;;;;;;-143.84;31.95;44811.06;5129760;27;20892;-72
2022/08/27 08:53:13;;;;;;;66.70;8.60;;;;;;;-143.84;32.32;44835.81;5129639;27;20946;-72
2022/08/27 08:55:46;;;;;;;62.93;9.77;;;;;;;-143.84;32.09;44832.00;5130188;27;20450;-73
2022/08/27 08:58:21;;;;;;;72.30;9.57;;;;;;;-143.84;32.03;44828.19;5130278;27;20553;-72
2022/08/27 09:00:56;;;;;;;65.13;7.97;;;;;;;-143.84;32.16;44835.81;5115941;27;20539;-73
2022/08/27 09:03:24;;;;;;;58.37;9.63;;;;;;;-143.84;33.45;44854.84;5109853;28;20467;-72
2022/08/27 09:05:58;;;;;;;63.17;8.70;;;;;;;-143.84;33.13;44820.56;5114346;27;20443;-72
2022/08/27 09:08:31;;;;;;;57.30;9.67;;;;;;;-143.84;32.29;44828.19;5130018;27;20437;-73
2022/08/27 09:11:06;;;;;;;48.47;8.40;;;;;;;-143.84;31.08;44824.38;5129589;27;20500;-73
2022/08/27 09:13:37;;;;;;;97.33;9.77;;;;;;;-143.84;31.99;44828.19;5130251;27;20453;-72
2022/08/27 09:16:07;;;;;;;54.03;9.07;;;;;;;-143.84;32.01;44803.44;5130389;27;20442;-78
2022/08/27 09:18:37;;;;;;;76.23;9.33;;;;;;;-143.84;32.75;44822.47;5132177;27;20442;-78
2022/08/27 09:21:16;;;;;;;66.03;9.73;;;;;;;-143.84;33.11;44843.44;5129146;27;20463;-78
2022/08/27 09:23:56;;;;;;;67.43;8.70;;;;;;;-143.84;33.51;44860.56;5121856;27;20514;-78
2022/08/27 09:26:26;;;;;;;73.53;9.70;;;;;;;-143.84;33.20;44830.09;5111779;28;20423;-78
2022/08/27 09:29:16;;;;;;;61.13;8.87;;;;;;;-143.84;35.21;44845.31;5111952;28;20937;-78
2022/08/27 09:31:47;;;;;;;48.23;7.93;;;;;;;-143.84;35.81;44835.81;5149244;27;20505;-77
2022/08/27 09:34:15;;;;;;;90.97;10.30;;;;;;;-143.84;36.21;44871.97;5148198;27;20451;-78
2022/08/27 09:36:58;;;;;;;59.80;8.87;;;;;;;-143.84;36.12;44862.47;5131802;28;20419;-78
2022/08/27 09:39:47;;;;;;;68.97;10.00;;;;;;;-143.84;37.89;44856.75;5132303;28;20871;-78
2022/08/27 09:42:28;;;;;;;83.93;9.50;;;;;;;-143.84;37.43;44833.91;5132306;28;20469;-78
2022/08/27 09:44:56;;;;;;;71.73;10.40;;;;;;;-143.84;36.50;44839.63;5131757;28;20433;-78
2022/08/27 09:47:25;;;;;;;77.77;10.17;;;;;;;-143.84;37.10;44837.72;5131898;28;20430;-78
2022/08/27 09:50:05;;;;;;;66.43;10.40;;;;;;;-143.84;36.95;44820.56;5132110;28;20406;-78
2022/08/27 09:52:35;;;;;;;57.63;9.70;;;;;;;-143.84;37.18;44858.66;5131741;28;20434;-78
2022/08/27 09:55:03;;;;;;;62.63;9.20;;;;;;;-143.84;38.65;44862.47;5131980;28;20438;-78
2022/08/27 09:57:34;;;;;;;69.33;9.17;;;;;;;-143.84;38.88;44845.31;5131464;28;20499;-78
2022/08/27 10:00:03;;;;;;;70.83;9.33;;;;;;;-143.84;39.13;44854.84;5111143;28;20463;-78
2022/08/27 10:02:32;;;;;;;62.90;8.67;;;;;;;-143.84;37.68;44868.19;5111179;28;20437;-78
2022/08/27 10:05:13;;;;;;;59.93;8.33;;;;;;;-143.84;36.58;44851.03;5111386;28;20443;-78
2022/08/27 10:07:51;;;;;;;76.57;8.70;;;;;;;-143.84;37.95;44891.03;5111597;28;20445;-78
2022/08/27 10:10:22;;;;;;;68.33;8.23;;;;;;;-143.84;38.58;44885.31;5111093;28;20510;-78
2022/08/27 10:12:55;;;;;;;60.03;9.77;;;;;;;-143.84;37.87;44851.03;5111096;28;20562;-78
2022/08/27 10:15:29;;;;;;;82.73;10.00;;;;;;;-143.84;38.81;44873.88;5110883;28;20431;-78
2022/08/27 10:18:13;;;;;;;56.60;9.97;;;;;;;-143.84;40.54;44858.66;5111508;28;21105;-78
2022/08/27 10:20:52;;;;;;;50.43;8.27;;;;;;;-143.84;37.06;44862.47;5111300;28;20474;-78
2022/08/27 10:23:30;;;;;;;85.07;8.80;;;;;;;-143.84;36.76;44839.63;5110521;28;20442;-78
2022/08/27 10:26:04;;;;;;;85.33;10.13;;;;;;;-143.84;35.33;44862.47;5110387;28;20441;-78
2022/08/27 10:28:40;;;;;;;71.13;9.57;;;;;;;-143.84;38.92;44851.03;5110700;28;20431;-78
2022/08/27 10:31:18;;;;;;;49.70;8.37;;;;;;;-143.84;41.66;44881.50;5111120;28;20488;-78
2022/08/27 10:33:58;;;;;;;60.30;8.97;;;;;;;-143.84;39.77;44885.31;5110992;28;20434;-78
2022/08/27 10:36:32;;;;;;;60.97;8.80;;;;;;;-143.84;40.97;44858.66;5111149;28;20925;-78
2022/08/27 10:39:07;;;;;;;63.30;8.30;;;;;;;-143.84;38.65;44870.09;5110961;28;20438;-78
2022/08/27 10:41:41;;;;;;;50.20;8.40;;;;;;;-143.84;42.18;44862.47;5110926;28;20470;-78
2022/08/27 10:44:25;;;;;;;62.50;8.63;;;;;;;-143.84;41.75;44856.75;5113318;28;20439;-78
2022/08/27 10:47:15;;;;;;;57.67;7.83;;;;;;;-143.84;40.51;44839.63;5114606;28;20439;-78
2022/08/27 10:49:52;;;;;;;53.30;8.00;;;;;;;-143.84;38.98;44864.38;5115115;28;20482;-79
2022/08/27 10:52:23;;;;;;;52.13;8.67;;;;;;;-143.84;38.86;44862.47;5115575;28;20438;-78
2022/08/27 10:54:57;;;;;;;74.03;9.30;;;;;;;-143.84;41.23;44879.59;5118166;27;20837;-78
2022/08/27 10:57:37;;;;;;;58.00;8.97;;;;;;;-143.84;38.53;44858.66;5134748;27;20792;-78
2022/08/27 11:00:09;;;;;;;62.43;8.73;;;;;;;-143.84;38.57;44847.22;5134594;27;20847;-78
2022/08/27 11:02:42;;;;;;;38.43;7.93;;;;;;;-143.84;42.28;44866.28;5134703;27;20984;-78
2022/08/27 11:05:16;;;;;;;44.90;7.83;;;;;;;-143.84;41.91;44881.50;5134878;27;20849;-77
2022/08/27 11:07:48;;;;;;;62.57;8.30;;;;;;;-143.84;37.98;44862.47;5114148;28;20517;-78
2022/08/27 11:10:22;;;;;;;72.00;9.07;;;;;;;-143.84;40.47;44879.59;5113813;28;20439;-78
2022/08/27 11:12:51;;;;;;;61.30;9.13;;;;;;;-143.84;38.81;44881.50;5113153;28;20841;-79
2022/08/27 11:15:23;;;;;;;56.73;9.53;;;;;;;-143.84;36.02;44858.66;5111600;28;20439;-72
2022/08/27 11:17:57;;;;;;;74.37;8.87;;;;;;;-143.84;36.96;44860.56;5111577;28;20551;-72
2022/08/27 11:20:29;;;;;;;49.50;8.80;;;;;;;-143.84;37.65;44883.41;5111336;28;20479;-72
2022/08/27 11:23:03;;;;;;;72.13;9.50;;;;;;;-143.84;38.06;44885.31;5111495;28;20450;-72